createdAt,value
2022-12-03T00:00:12.191Z,23.10
2022-12-03T00:02:57.903Z,19.88
2022-12-03T00:05:48.863Z,26.27
2022-12-03T00:08:34.216Z,20.23
2022-12-03T00:11:18.957Z,23.65
2022-12-03T00:14:03.622Z,22.20
2022-12-03T00:16:48.344Z,23.17
2022-12-03T00:19:33.492Z,22.42
2022-12-03T00:22:18.013Z,20.02
2022-12-03T00:25:03.330Z,21.88
2022-12-03T00:27:47.910Z,26.42
2022-12-03T00:30:32.840Z,24.73
2022-12-03T00:33:19.809Z,28.73
2022-12-03T00:36:04.969Z,26.80
2022-12-03T00:38:49.825Z,20.33
2022-12-03T00:41:34.710Z,25.48
2022-12-03T00:47:04.329Z,31.77
2022-12-03T00:49:49.264Z,25.45
2022-12-03T00:55:18.755Z,22.92
2022-12-03T00:58:03.666Z,27.70
2022-12-03T01:00:48.546Z,22.58
2022-12-03T01:03:33.601Z,28.27
2022-12-03T01:06:18.390Z,25.80
2022-12-03T01:09:03.386Z,26.33
2022-12-03T01:11:48.315Z,24.55
2022-12-03T01:14:32.943Z,24.38
2022-12-03T01:17:17.788Z,25.13
2022-12-03T01:20:06.289Z,24.90
2022-12-03T01:22:51.258Z,23.75
2022-12-03T01:25:36.116Z,23.08
2022-12-03T01:28:21.060Z,25.45
2022-12-03T01:31:24.209Z,27.85
2022-12-03T01:34:09.113Z,27.50
2022-12-03T01:36:54.366Z,24.23
2022-12-03T01:39:39.086Z,25.45
2022-12-03T01:42:34.425Z,26.65
2022-12-03T01:45:23.635Z,24.33
2022-12-03T01:48:13.004Z,26.85
2022-12-03T01:50:57.690Z,24.80
2022-12-03T01:53:43.884Z,27.35
2022-12-03T01:59:15.870Z,27.92
2022-12-03T02:02:18.752Z,22.63
2022-12-03T02:05:32.275Z,27.88
2022-12-03T02:08:36.859Z,21.98
2022-12-03T02:11:27.844Z,23.92
2022-12-03T02:14:19.641Z,26.25
2022-12-03T02:17:04.394Z,28.02
2022-12-03T02:19:49.566Z,23.63
2022-12-03T02:22:34.447Z,20.27
2022-12-03T02:25:23.980Z,23.05
2022-12-03T02:28:09.401Z,23.33
2022-12-03T02:30:53.830Z,28.55
2022-12-03T02:33:38.679Z,23.35
2022-12-03T02:36:23.882Z,22.35
2022-12-03T02:39:08.677Z,26.60
2022-12-03T02:42:12.050Z,29.20
2022-12-03T02:45:05.103Z,31.60
2022-12-03T02:48:33.761Z,32.00
2022-12-03T02:51:18.499Z,31.83
2022-12-03T02:54:03.690Z,26.42
2022-12-03T02:56:49.017Z,26.85
2022-12-03T02:59:33.760Z,25.95
2022-12-03T03:02:19.107Z,29.90
2022-12-03T03:05:06.567Z,25.27
2022-12-03T03:07:51.298Z,27.10
2022-12-03T03:10:38.388Z,26.10
2022-12-03T03:13:23.369Z,30.15
2022-12-03T03:18:53.526Z,25.90
2022-12-03T03:21:38.415Z,26.80
2022-12-03T03:27:08.910Z,23.48
2022-12-03T03:29:54.154Z,23.33
2022-12-03T03:32:40.694Z,26.05
2022-12-03T03:35:25.843Z,24.83
2022-12-03T03:38:11.078Z,20.50
2022-12-03T03:40:57.395Z,24.65
2022-12-03T03:43:43.690Z,38.30
2022-12-03T03:46:29.297Z,35.85
2022-12-03T03:49:14.710Z,33.75
2022-12-03T03:51:59.666Z,30.25
2022-12-03T03:54:45.035Z,29.05
2022-12-03T03:57:30.045Z,27.67
2022-12-03T04:00:16.174Z,26.83
2022-12-03T04:03:00.829Z,26.55
2022-12-03T04:05:46.383Z,26.98
2022-12-03T04:08:31.135Z,27.60
2022-12-03T04:14:19.543Z,26.02
2022-12-03T04:17:04.033Z,30.08
2022-12-03T04:19:48.942Z,34.72
2022-12-03T04:22:39.715Z,43.53
2022-12-03T04:25:43.001Z,46.70
2022-12-03T04:28:46.296Z,35.97
2022-12-03T04:31:49.690Z,30.83
2022-12-03T04:34:53.388Z,28.60
2022-12-03T04:37:38.660Z,23.25
2022-12-03T04:43:27.888Z,25.90
2022-12-03T04:46:12.791Z,27.67
2022-12-03T04:48:57.769Z,25.95
2022-12-03T04:54:28.134Z,25.17
2022-12-03T04:57:13.283Z,24.33
2022-12-03T05:02:42.846Z,32.45
2022-12-03T05:05:27.865Z,28.98
2022-12-03T05:08:12.776Z,29.77
2022-12-03T05:10:57.656Z,28.17
2022-12-03T05:13:43.184Z,33.42
2022-12-03T05:16:28.341Z,32.15
2022-12-03T05:21:57.518Z,26.75
2022-12-03T05:24:42.198Z,25.23
2022-12-03T05:27:27.142Z,31.75
2022-12-03T05:30:12.535Z,23.63
2022-12-03T05:32:57.247Z,31.15
2022-12-03T05:38:26.816Z,28.48
2022-12-03T05:41:30.141Z,35.95
2022-12-03T05:44:20.312Z,28.08
2022-12-03T05:47:05.829Z,31.70
2022-12-03T05:49:50.518Z,32.63
2022-12-03T05:52:35.268Z,32.47
2022-12-03T05:55:20.252Z,28.88
2022-12-03T05:58:05.521Z,26.17
2022-12-03T06:00:50.090Z,28.45
2022-12-03T06:03:35.159Z,49.50
2022-12-03T06:09:04.642Z,51.33
2022-12-03T06:11:53.384Z,37.25
2022-12-03T06:14:38.009Z,33.40
2022-12-03T06:20:10.235Z,26.40
2022-12-03T06:22:54.909Z,39.53
2022-12-03T06:25:40.052Z,39.92
2022-12-03T06:31:09.704Z,28.95
2022-12-03T06:33:54.593Z,28.65
2022-12-03T06:36:39.623Z,32.28
2022-12-03T06:39:24.546Z,31.17
2022-12-03T06:44:54.467Z,26.88
2022-12-03T06:47:39.649Z,29.00
2022-12-03T06:53:08.956Z,24.65
2022-12-03T06:55:53.869Z,30.33
2022-12-03T06:58:38.430Z,23.90
2022-12-03T07:04:09.260Z,22.55
2022-12-03T07:06:53.782Z,26.13
2022-12-03T07:12:23.228Z,30.65
2022-12-03T07:15:08.885Z,33.78
2022-12-03T07:17:53.688Z,32.42
2022-12-03T07:20:38.661Z,43.75
2022-12-03T07:23:23.345Z,35.25
2022-12-03T07:26:23.421Z,34.40
2022-12-03T07:29:08.042Z,28.83
2022-12-03T07:31:53.153Z,29.63
2022-12-03T07:37:23.438Z,29.33
2022-12-03T07:40:09.238Z,23.92
2022-12-03T07:42:53.705Z,39.78
2022-12-03T07:45:38.447Z,29.02
2022-12-03T07:48:23.365Z,27.23
2022-12-03T07:51:11.572Z,26.25
2022-12-03T07:53:59.391Z,24.38
2022-12-03T07:56:44.262Z,28.38
2022-12-03T07:59:29.458Z,23.85
2022-12-03T08:02:19.635Z,28.02
2022-12-03T08:05:06.470Z,25.67
2022-12-03T08:10:35.635Z,25.90
2022-12-03T08:13:20.546Z,21.27
2022-12-03T08:16:17.095Z,23.23
2022-12-03T08:19:02.045Z,33.60
2022-12-03T08:24:31.248Z,24.20
2022-12-03T08:30:04.226Z,26.00
2022-12-03T08:32:50.406Z,25.85
2022-12-03T08:35:35.092Z,26.58
2022-12-03T08:38:24.183Z,23.27
2022-12-03T08:41:14.820Z,27.23
2022-12-03T08:43:59.674Z,27.48
2022-12-03T08:46:44.922Z,20.67
2022-12-03T08:49:29.438Z,29.48
2022-12-03T08:52:32.924Z,27.73
2022-12-03T08:55:38.577Z,24.92
2022-12-03T08:58:32.083Z,25.75
2022-12-03T09:01:28.059Z,23.85
2022-12-03T09:04:44.557Z,25.65
2022-12-03T09:07:29.485Z,24.98
2022-12-03T09:12:59.279Z,22.60
2022-12-03T09:18:28.648Z,35.92
2022-12-03T09:21:13.770Z,30.45
2022-12-03T09:23:58.907Z,26.23
2022-12-03T09:29:28.461Z,23.17
2022-12-03T09:32:18.082Z,20.58
2022-12-03T09:35:04.244Z,23.65
2022-12-03T09:37:48.940Z,21.23
2022-12-03T09:40:34.105Z,23.70
2022-12-03T09:43:19.420Z,22.95
2022-12-03T09:48:49.569Z,20.20
2022-12-03T09:51:36.035Z,25.65
2022-12-03T09:54:23.824Z,27.40
2022-12-03T09:57:11.620Z,21.73
2022-12-03T09:59:57.470Z,24.10
2022-12-03T10:02:46.120Z,23.73
2022-12-03T10:05:31.527Z,26.05
2022-12-03T10:08:22.002Z,18.02
2022-12-03T10:11:06.759Z,21.33
2022-12-03T10:16:39.668Z,20.27
2022-12-03T10:19:28.768Z,22.33
2022-12-03T10:22:13.376Z,21.15
2022-12-03T10:25:08.352Z,22.55
2022-12-03T10:27:59.814Z,21.50
2022-12-03T10:30:54.783Z,21.95
2022-12-03T10:33:46.690Z,17.95
2022-12-03T10:36:31.776Z,22.30
2022-12-03T10:39:16.749Z,22.33
2022-12-03T10:42:22.481Z,22.42
2022-12-03T10:45:17.473Z,19.70
2022-12-03T10:48:15.717Z,19.50
2022-12-03T10:51:06.644Z,20.30
2022-12-03T10:53:51.510Z,23.45
2022-12-03T10:59:27.902Z,17.20
2022-12-03T11:02:22.293Z,23.92
2022-12-03T11:05:12.510Z,21.40
2022-12-03T11:07:57.356Z,20.98
2022-12-03T11:13:46.352Z,22.08
2022-12-03T11:16:40.572Z,22.38
2022-12-03T11:19:42.538Z,17.77
2022-12-03T11:22:42.344Z,20.50
2022-12-03T11:25:27.218Z,20.65
2022-12-03T11:31:03.051Z,21.52
2022-12-03T11:33:48.204Z,22.20
2022-12-03T11:37:00.474Z,20.25
2022-12-03T11:39:44.340Z,20.70
2022-12-03T11:42:37.908Z,22.73
2022-12-03T11:45:30.742Z,27.60
2022-12-03T11:48:16.203Z,25.10
2022-12-03T11:51:00.811Z,29.52
2022-12-03T11:56:30.950Z,23.30
2022-12-03T12:02:18.223Z,21.40
2022-12-03T12:05:29.564Z,24.48
2022-12-03T12:08:18.545Z,26.15
2022-12-03T12:11:15.472Z,24.63
2022-12-03T12:14:10.274Z,23.45
2022-12-03T12:16:55.481Z,20.98
2022-12-03T12:19:42.531Z,19.95
2022-12-03T12:22:27.797Z,22.48
2022-12-03T12:28:15.801Z,19.73
2022-12-03T12:33:45.712Z,20.55
2022-12-03T12:36:31.492Z,21.80
2022-12-03T12:39:16.132Z,19.40
2022-12-03T12:42:05.905Z,16.52
2022-12-03T12:44:51.631Z,21.98
2022-12-03T12:47:36.779Z,22.15
2022-12-03T12:53:10.619Z,21.10
2022-12-03T12:56:20.342Z,24.50
2022-12-03T13:01:55.976Z,20.05
2022-12-03T13:07:44.758Z,26.92
2022-12-03T13:10:41.350Z,26.90
2022-12-03T13:13:43.703Z,19.50
2022-12-03T13:16:32.154Z,18.00
2022-12-03T13:19:21.385Z,21.63
2022-12-03T13:22:17.916Z,24.48
2022-12-03T13:25:58.906Z,25.27
2022-12-03T13:28:41.302Z,27.30
2022-12-03T13:31:39.462Z,25.70
2022-12-03T13:34:32.727Z,25.35
2022-12-03T13:37:24.700Z,26.15
2022-12-03T13:40:30.161Z,28.48
2022-12-03T13:43:16.349Z,29.02
2022-12-03T13:46:01.171Z,27.25
2022-12-03T13:51:32.673Z,25.55
2022-12-03T13:54:25.665Z,23.02
2022-12-03T13:57:11.822Z,27.33
2022-12-03T13:59:57.024Z,24.58
2022-12-03T14:02:42.412Z,26.40
2022-12-03T14:08:11.659Z,23.67
2022-12-03T14:11:00.413Z,25.35
2022-12-03T14:13:45.325Z,22.70
2022-12-03T14:16:30.456Z,25.25
2022-12-03T14:19:15.134Z,27.20
2022-12-03T14:22:00.351Z,25.00
2022-12-03T14:24:45.040Z,25.75
2022-12-03T14:27:29.906Z,23.60
2022-12-03T14:32:59.463Z,22.42
2022-12-03T14:35:44.512Z,21.20
2022-12-03T14:38:29.399Z,19.50
2022-12-03T14:41:34.865Z,21.13
2022-12-03T14:44:23.004Z,21.30
2022-12-03T14:47:08.099Z,25.85
2022-12-03T14:49:53.321Z,32.10
2022-12-03T14:52:38.379Z,26.65
2022-12-03T14:58:07.936Z,26.23
2022-12-03T15:00:52.878Z,25.40
2022-12-03T15:03:39.952Z,24.73
2022-12-03T15:06:25.180Z,26.02
2022-12-03T15:09:10.497Z,23.02
2022-12-03T15:11:55.402Z,26.73
2022-12-03T15:14:40.760Z,27.92
2022-12-03T15:17:31.628Z,23.17
2022-12-03T15:20:17.567Z,23.63
2022-12-03T15:23:02.499Z,22.65
2022-12-03T15:28:31.734Z,22.73
2022-12-03T15:31:16.768Z,26.10
2022-12-03T15:34:01.836Z,22.80
2022-12-03T15:36:46.726Z,25.08
2022-12-03T15:42:35.693Z,20.20
2022-12-03T15:48:05.582Z,22.35
2022-12-03T15:50:50.254Z,21.27
2022-12-03T15:53:35.477Z,23.38
2022-12-03T15:59:23.460Z,23.85
2022-12-03T16:04:53.361Z,24.80
2022-12-03T16:10:23.327Z,24.42
2022-12-03T16:13:07.799Z,28.45
2022-12-03T16:15:53.713Z,22.95
2022-12-03T16:18:38.845Z,25.88
2022-12-03T16:21:27.025Z,32.45
2022-12-03T16:24:12.497Z,29.42
2022-12-03T16:29:42.293Z,32.28
2022-12-03T16:35:11.619Z,32.13
2022-12-03T16:40:41.141Z,33.20
2022-12-03T16:43:26.043Z,29.40
2022-12-03T16:48:58.446Z,32.22
2022-12-03T16:54:27.995Z,45.63
2022-12-03T16:57:13.149Z,28.40
2022-12-03T17:02:42.420Z,36.80
2022-12-03T17:05:27.262Z,53.22
2022-12-03T17:08:13.472Z,36.95
2022-12-03T17:10:58.479Z,42.10
2022-12-03T17:16:28.002Z,39.30
2022-12-03T17:21:59.084Z,39.25
2022-12-03T17:24:43.914Z,42.47
2022-12-03T17:30:14.880Z,36.63
2022-12-03T17:32:59.757Z,33.13
2022-12-03T17:38:35.678Z,33.72
2022-12-03T17:41:25.698Z,34.40
2022-12-03T17:44:13.919Z,40.45
2022-12-03T17:47:01.097Z,37.33
2022-12-03T17:52:30.662Z,35.55
2022-12-03T17:55:23.996Z,45.63
2022-12-03T17:58:15.948Z,54.38
2022-12-03T18:01:02.974Z,38.28
2022-12-03T18:03:48.524Z,47.60
2022-12-03T18:06:33.306Z,41.03
2022-12-03T18:09:18.316Z,49.17
2022-12-03T18:12:03.234Z,45.28
2022-12-03T18:17:32.509Z,52.60
2022-12-03T18:20:17.695Z,47.42
2022-12-03T18:23:03.046Z,50.63
2022-12-03T18:25:48.087Z,55.78
2022-12-03T18:31:20.484Z,56.13
2022-12-03T18:34:04.839Z,59.00
2022-12-03T18:39:36.419Z,51.35
2022-12-03T18:42:22.393Z,47.78
2022-12-03T18:45:10.750Z,54.97
2022-12-03T18:47:55.550Z,54.03
2022-12-03T18:53:25.401Z,55.97
2022-12-03T18:58:55.504Z,50.88
2022-12-03T19:01:40.518Z,57.40
2022-12-03T19:07:11.723Z,53.95
2022-12-03T19:09:56.856Z,56.17
2022-12-03T19:12:41.416Z,52.70
2022-12-03T19:15:26.355Z,49.47
2022-12-03T19:18:11.195Z,56.53
2022-12-03T19:20:56.434Z,48.65
2022-12-03T19:26:43.809Z,53.55
2022-12-03T19:32:13.335Z,49.25
2022-12-03T19:37:42.991Z,47.22
2022-12-03T19:40:27.980Z,66.43
2022-12-03T19:46:01.987Z,55.72
2022-12-03T19:48:47.109Z,48.85
2022-12-03T19:51:35.132Z,50.70
2022-12-03T19:54:20.134Z,53.95
2022-12-03T19:59:49.677Z,52.28
2022-12-03T20:02:34.497Z,49.15
2022-12-03T20:05:19.328Z,55.08
2022-12-03T20:08:05.399Z,53.40
2022-12-03T20:10:50.201Z,50.08
2022-12-03T20:16:23.173Z,55.70
2022-12-03T20:19:10.847Z,52.05
2022-12-03T20:22:02.085Z,53.50
2022-12-03T20:24:47.773Z,52.28
2022-12-03T20:30:17.703Z,56.45
2022-12-03T20:35:54.155Z,48.95
2022-12-03T20:38:38.736Z,46.92
2022-12-03T20:41:24.149Z,53.15
2022-12-03T20:44:09.359Z,48.80
2022-12-03T20:49:39.570Z,43.22
2022-12-03T20:52:24.521Z,44.72
2022-12-03T20:55:09.669Z,47.40
2022-12-03T20:57:54.390Z,48.90
2022-12-03T21:03:23.710Z,44.58
2022-12-03T21:06:09.631Z,41.78
2022-12-03T21:08:55.532Z,41.17
2022-12-03T21:11:41.690Z,45.92
2022-12-03T21:14:26.916Z,46.45
2022-12-03T21:17:11.784Z,46.33
2022-12-03T21:19:57.039Z,42.88
2022-12-03T21:22:42.227Z,46.28
2022-12-03T21:25:26.978Z,40.03
2022-12-03T21:28:11.938Z,42.35
2022-12-03T21:31:01.894Z,41.25
2022-12-03T21:33:47.221Z,39.05
2022-12-03T21:36:32.168Z,38.88
2022-12-03T21:39:18.080Z,42.78
2022-12-03T21:42:36.106Z,43.22
2022-12-03T21:45:08.511Z,29.58
2022-12-03T21:50:38.377Z,35.83
2022-12-03T21:53:23.168Z,38.63
2022-12-03T21:56:10.673Z,40.20
2022-12-03T21:58:55.466Z,39.45
2022-12-03T22:01:44.133Z,34.13
2022-12-03T22:04:31.882Z,37.42
2022-12-03T22:10:01.694Z,30.25
2022-12-03T22:12:46.096Z,37.03
2022-12-03T22:15:31.091Z,29.73
2022-12-03T22:21:09.064Z,36.35
2022-12-03T22:23:55.345Z,32.03
2022-12-03T22:26:40.167Z,35.05
2022-12-03T22:29:25.386Z,31.02
2022-12-03T22:32:10.197Z,35.28
2022-12-03T22:34:55.320Z,33.70
2022-12-03T22:37:40.068Z,31.02
2022-12-03T22:40:25.207Z,31.58
2022-12-03T22:45:55.259Z,28.27
2022-12-03T22:48:41.994Z,29.90
2022-12-03T22:51:27.040Z,29.33
2022-12-03T22:56:56.953Z,28.25
2022-12-03T22:59:41.810Z,26.05
2022-12-03T23:05:11.279Z,22.15
2022-12-03T23:10:44.228Z,25.02
2022-12-03T23:13:28.805Z,25.45
2022-12-03T23:16:17.534Z,24.83
2022-12-03T23:19:03.418Z,23.15
2022-12-03T23:21:48.204Z,21.20
2022-12-03T23:27:17.911Z,18.98
2022-12-03T23:32:47.947Z,20.13
2022-12-03T23:38:18.084Z,20.50
2022-12-03T23:41:08.525Z,18.92
2022-12-03T23:43:54.047Z,20.92
2022-12-03T23:46:38.909Z,20.65
2022-12-03T23:49:23.479Z,16.75
2022-12-03T23:52:08.713Z,19.75
2022-12-03T23:54:53.486Z,18.65
